sensor_id;sensor_type;location;lat;lon;timestamp;temperature;humidity
19622;DHT22;9958;33.196;-97.114;2022-10-16T00:01:08;30.60;67.10
19622;DHT22;9958;33.196;-97.114;2022-10-16T00:03:39;30.60;67.40
19622;DHT22;9958;33.196;-97.114;2022-10-16T00:06:09;30.60;67.80
19622;DHT22;9958;33.196;-97.114;2022-10-16T00:08:38;30.50;68.00
19622;DHT22;9958;33.196;-97.114;2022-10-16T00:11:08;30.40;68.00
19622;DHT22;9958;33.196;-97.114;2022-10-16T00:13:38;30.40;68.00
19622;DHT22;9958;33.196;-97.114;2022-10-16T00:16:07;30.30;68.00
19622;DHT22;9958;33.196;-97.114;2022-10-16T00:18:38;30.30;68.00
19622;DHT22;9958;33.196;-97.114;2022-10-16T00:21:07;30.30;67.90
19622;DHT22;9958;33.196;-97.114;2022-10-16T00:23:36;30.20;67.90
19622;DHT22;9958;33.196;-97.114;2022-10-16T00:26:06;30.20;68.10
19622;DHT22;9958;33.196;-97.114;2022-10-16T00:28:35;30.10;68.20
19622;DHT22;9958;33.196;-97.114;2022-10-16T00:31:04;30.10;68.50
19622;DHT22;9958;33.196;-97.114;2022-10-16T00:33:33;30.10;68.70
19622;DHT22;9958;33.196;-97.114;2022-10-16T00:36:04;30.00;68.90
19622;DHT22;9958;33.196;-97.114;2022-10-16T00:38:33;29.90;69.20
19622;DHT22;9958;33.196;-97.114;2022-10-16T00:41:02;29.90;69.50
19622;DHT22;9958;33.196;-97.114;2022-10-16T00:43:36;29.80;69.70
19622;DHT22;9958;33.196;-97.114;2022-10-16T00:46:09;29.70;70.50
19622;DHT22;9958;33.196;-97.114;2022-10-16T00:48:38;29.60;70.30
19622;DHT22;9958;33.196;-97.114;2022-10-16T00:51:08;29.60;70.40
19622;DHT22;9958;33.196;-97.114;2022-10-16T00:53:37;29.50;70.30
19622;DHT22;9958;33.196;-97.114;2022-10-16T00:56:06;29.50;70.30
19622;DHT22;9958;33.196;-97.114;2022-10-16T00:58:34;29.40;70.70
19622;DHT22;9958;33.196;-97.114;2022-10-16T01:01:02;29.40;71.00
19622;DHT22;9958;33.196;-97.114;2022-10-16T01:03:32;29.30;71.30
19622;DHT22;9958;33.196;-97.114;2022-10-16T01:06:19;29.20;71.40
19622;DHT22;9958;33.196;-97.114;2022-10-16T01:08:58;29.10;71.40
19622;DHT22;9958;33.196;-97.114;2022-10-16T01:11:34;29.00;71.60
19622;DHT22;9958;33.196;-97.114;2022-10-16T01:14:08;29.00;71.90
19622;DHT22;9958;33.196;-97.114;2022-10-16T01:16:44;28.90;72.20
19622;DHT22;9958;33.196;-97.114;2022-10-16T01:19:19;28.80;72.80
19622;DHT22;9958;33.196;-97.114;2022-10-16T01:21:52;28.70;72.90
19622;DHT22;9958;33.196;-97.114;2022-10-16T01:24:30;28.60;73.10
19622;DHT22;9958;33.196;-97.114;2022-10-16T01:27:09;28.50;73.50
19622;DHT22;9958;33.196;-97.114;2022-10-16T01:29:40;28.50;73.90
19622;DHT22;9958;33.196;-97.114;2022-10-16T01:32:16;28.40;74.10
19622;DHT22;9958;33.196;-97.114;2022-10-16T01:34:49;28.40;74.50
19622;DHT22;9958;33.196;-97.114;2022-10-16T01:37:27;28.30;74.90
19622;DHT22;9958;33.196;-97.114;2022-10-16T01:40:00;28.30;75.10
19622;DHT22;9958;33.196;-97.114;2022-10-16T01:42:34;28.20;75.40
19622;DHT22;9958;33.196;-97.114;2022-10-16T01:45:05;28.20;75.90
19622;DHT22;9958;33.196;-97.114;2022-10-16T01:47:36;28.20;76.30
19622;DHT22;9958;33.196;-97.114;2022-10-16T01:50:05;28.10;76.50
19622;DHT22;9958;33.196;-97.114;2022-10-16T01:52:37;28.10;77.00
19622;DHT22;9958;33.196;-97.114;2022-10-16T01:55:09;28.00;77.50
19622;DHT22;9958;33.196;-97.114;2022-10-16T01:57:42;28.00;78.10
19622;DHT22;9958;33.196;-97.114;2022-10-16T02:00:14;27.90;78.30
19622;DHT22;9958;33.196;-97.114;2022-10-16T02:02:47;27.90;78.70
19622;DHT22;9958;33.196;-97.114;2022-10-16T02:05:20;27.80;79.00
19622;DHT22;9958;33.196;-97.114;2022-10-16T02:07:50;27.80;79.50
19622;DHT22;9958;33.196;-97.114;2022-10-16T02:10:18;27.80;79.90
19622;DHT22;9958;33.196;-97.114;2022-10-16T02:12:50;27.70;80.40
19622;DHT22;9958;33.196;-97.114;2022-10-16T02:15:21;27.70;81.00
19622;DHT22;9958;33.196;-97.114;2022-10-16T02:17:50;27.70;81.00
19622;DHT22;9958;33.196;-97.114;2022-10-16T02:20:21;27.70;81.70
19622;DHT22;9958;33.196;-97.114;2022-10-16T02:22:54;27.60;82.10
19622;DHT22;9958;33.196;-97.114;2022-10-16T02:25:27;27.60;82.60
19622;DHT22;9958;33.196;-97.114;2022-10-16T02:28:03;27.60;83.00
19622;DHT22;9958;33.196;-97.114;2022-10-16T02:30:36;27.50;83.40
19622;DHT22;9958;33.196;-97.114;2022-10-16T02:33:08;27.50;83.60
19622;DHT22;9958;33.196;-97.114;2022-10-16T02:35:37;27.50;84.20
19622;DHT22;9958;33.196;-97.114;2022-10-16T02:38:06;27.50;84.50
19622;DHT22;9958;33.196;-97.114;2022-10-16T02:40:36;27.40;84.70
19622;DHT22;9958;33.196;-97.114;2022-10-16T02:43:07;27.40;85.10
19622;DHT22;9958;33.196;-97.114;2022-10-16T02:45:35;27.30;85.30
19622;DHT22;9958;33.196;-97.114;2022-10-16T02:48:04;27.30;85.50
19622;DHT22;9958;33.196;-97.114;2022-10-16T02:50:32;27.30;85.80
19622;DHT22;9958;33.196;-97.114;2022-10-16T02:53:01;27.30;86.10
19622;DHT22;9958;33.196;-97.114;2022-10-16T02:55:29;27.30;87.20
19622;DHT22;9958;33.196;-97.114;2022-10-16T02:57:57;27.20;86.50
19622;DHT22;9958;33.196;-97.114;2022-10-16T03:00:27;27.20;86.50
19622;DHT22;9958;33.196;-97.114;2022-10-16T03:02:55;27.20;86.90
19622;DHT22;9958;33.196;-97.114;2022-10-16T03:05:24;27.10;87.40
19622;DHT22;9958;33.196;-97.114;2022-10-16T03:07:52;27.10;87.60
19622;DHT22;9958;33.196;-97.114;2022-10-16T03:10:20;27.10;88.00
19622;DHT22;9958;33.196;-97.114;2022-10-16T03:12:48;27.10;87.90
19622;DHT22;9958;33.196;-97.114;2022-10-16T03:15:17;27.10;88.10
19622;DHT22;9958;33.196;-97.114;2022-10-16T03:17:47;27.10;88.40
19622;DHT22;9958;33.196;-97.114;2022-10-16T03:20:15;27.00;88.40
19622;DHT22;9958;33.196;-97.114;2022-10-16T03:22:43;27.00;88.50
19622;DHT22;9958;33.196;-97.114;2022-10-16T03:25:12;27.00;88.80
19622;DHT22;9958;33.196;-97.114;2022-10-16T03:27:40;26.90;88.70
19622;DHT22;9958;33.196;-97.114;2022-10-16T03:30:09;26.90;88.90
19622;DHT22;9958;33.196;-97.114;2022-10-16T03:32:37;26.90;89.20
19622;DHT22;9958;33.196;-97.114;2022-10-16T03:35:08;26.90;89.30
19622;DHT22;9958;33.196;-97.114;2022-10-16T03:37:36;26.90;89.50
19622;DHT22;9958;33.196;-97.114;2022-10-16T03:40:05;26.80;89.70
19622;DHT22;9958;33.196;-97.114;2022-10-16T03:42:34;26.80;89.70
19622;DHT22;9958;33.196;-97.114;2022-10-16T03:45:02;26.80;89.90
19622;DHT22;9958;33.196;-97.114;2022-10-16T03:47:30;26.80;90.00
19622;DHT22;9958;33.196;-97.114;2022-10-16T03:49:59;26.70;90.10
19622;DHT22;9958;33.196;-97.114;2022-10-16T03:52:29;26.70;90.20
19622;DHT22;9958;33.196;-97.114;2022-10-16T03:54:58;26.70;90.40
19622;DHT22;9958;33.196;-97.114;2022-10-16T03:57:26;26.60;90.50
19622;DHT22;9958;33.196;-97.114;2022-10-16T03:59:54;26.50;90.60
19622;DHT22;9958;33.196;-97.114;2022-10-16T04:02:23;26.50;90.80
19622;DHT22;9958;33.196;-97.114;2022-10-16T04:04:51;26.40;90.80
19622;DHT22;9958;33.196;-97.114;2022-10-16T04:07:19;26.40;90.80
19622;DHT22;9958;33.196;-97.114;2022-10-16T04:09:49;26.40;91.10
19622;DHT22;9958;33.196;-97.114;2022-10-16T04:12:18;26.30;91.20
19622;DHT22;9958;33.196;-97.114;2022-10-16T04:14:46;26.30;91.20
19622;DHT22;9958;33.196;-97.114;2022-10-16T04:17:14;26.20;91.30
19622;DHT22;9958;33.196;-97.114;2022-10-16T04:19:43;26.20;91.50
19622;DHT22;9958;33.196;-97.114;2022-10-16T04:22:11;26.20;91.70
19622;DHT22;9958;33.196;-97.114;2022-10-16T04:24:39;26.10;91.70
19622;DHT22;9958;33.196;-97.114;2022-10-16T04:27:09;26.10;91.80
19622;DHT22;9958;33.196;-97.114;2022-10-16T04:29:38;26.00;91.90
19622;DHT22;9958;33.196;-97.114;2022-10-16T04:32:08;26.00;92.00
19622;DHT22;9958;33.196;-97.114;2022-10-16T04:34:38;26.00;92.10
19622;DHT22;9958;33.196;-97.114;2022-10-16T04:37:07;25.90;92.10
19622;DHT22;9958;33.196;-97.114;2022-10-16T04:39:35;25.90;92.10
19622;DHT22;9958;33.196;-97.114;2022-10-16T04:42:03;25.90;92.20
19622;DHT22;9958;33.196;-97.114;2022-10-16T04:44:33;25.90;92.30
19622;DHT22;9958;33.196;-97.114;2022-10-16T04:47:01;25.90;92.50
19622;DHT22;9958;33.196;-97.114;2022-10-16T04:49:30;25.80;92.60
19622;DHT22;9958;33.196;-97.114;2022-10-16T04:51:59;25.80;92.60
19622;DHT22;9958;33.196;-97.114;2022-10-16T04:54:27;25.80;92.50
19622;DHT22;9958;33.196;-97.114;2022-10-16T04:56:55;25.80;92.60
19622;DHT22;9958;33.196;-97.114;2022-10-16T04:59:24;25.70;92.70
19622;DHT22;9958;33.196;-97.114;2022-10-16T05:01:53;25.70;92.70
19622;DHT22;9958;33.196;-97.114;2022-10-16T05:04:22;25.70;92.80
19622;DHT22;9958;33.196;-97.114;2022-10-16T05:06:50;25.70;92.90
19622;DHT22;9958;33.196;-97.114;2022-10-16T05:09:18;25.70;93.00
19622;DHT22;9958;33.196;-97.114;2022-10-16T05:11:47;25.60;93.00
19622;DHT22;9958;33.196;-97.114;2022-10-16T05:14:15;25.60;93.10
19622;DHT22;9958;33.196;-97.114;2022-10-16T05:16:43;25.60;93.10
19622;DHT22;9958;33.196;-97.114;2022-10-16T05:19:13;25.60;93.10
19622;DHT22;9958;33.196;-97.114;2022-10-16T05:21:41;25.60;93.20
19622;DHT22;9958;33.196;-97.114;2022-10-16T05:24:10;25.50;93.20
19622;DHT22;9958;33.196;-97.114;2022-10-16T05:26:38;25.50;93.20
19622;DHT22;9958;33.196;-97.114;2022-10-16T05:29:06;25.50;93.10
19622;DHT22;9958;33.196;-97.114;2022-10-16T05:31:34;25.50;93.20
19622;DHT22;9958;33.196;-97.114;2022-10-16T05:34:03;25.50;93.20
19622;DHT22;9958;33.196;-97.114;2022-10-16T05:36:33;25.50;93.10
19622;DHT22;9958;33.196;-97.114;2022-10-16T05:39:01;25.50;93.10
19622;DHT22;9958;33.196;-97.114;2022-10-16T05:41:29;25.50;93.10
19622;DHT22;9958;33.196;-97.114;2022-10-16T05:43:58;25.50;93.20
19622;DHT22;9958;33.196;-97.114;2022-10-16T05:46:26;25.50;93.20
19622;DHT22;9958;33.196;-97.114;2022-10-16T05:48:54;25.50;93.20
19622;DHT22;9958;33.196;-97.114;2022-10-16T05:51:22;25.50;93.40
19622;DHT22;9958;33.196;-97.114;2022-10-16T05:53:52;25.40;93.40
19622;DHT22;9958;33.196;-97.114;2022-10-16T05:56:21;25.40;93.50
19622;DHT22;9958;33.196;-97.114;2022-10-16T05:58:49;25.40;93.50
19622;DHT22;9958;33.196;-97.114;2022-10-16T06:01:18;25.40;93.50
19622;DHT22;9958;33.196;-97.114;2022-10-16T06:03:46;25.40;93.50
19622;DHT22;9958;33.196;-97.114;2022-10-16T06:06:17;25.30;93.50
19622;DHT22;9958;33.196;-97.114;2022-10-16T06:08:46;25.40;93.50
19622;DHT22;9958;33.196;-97.114;2022-10-16T06:11:19;25.30;93.60
19622;DHT22;9958;33.196;-97.114;2022-10-16T06:13:50;25.30;93.70
19622;DHT22;9958;33.196;-97.114;2022-10-16T06:16:18;25.30;93.80
19622;DHT22;9958;33.196;-97.114;2022-10-16T06:18:47;25.30;93.80
19622;DHT22;9958;33.196;-97.114;2022-10-16T06:21:17;25.30;93.80
19622;DHT22;9958;33.196;-97.114;2022-10-16T06:23:46;25.30;93.80
19622;DHT22;9958;33.196;-97.114;2022-10-16T06:26:18;25.30;93.80
19622;DHT22;9958;33.196;-97.114;2022-10-16T06:28:47;25.30;93.80
19622;DHT22;9958;33.196;-97.114;2022-10-16T06:31:16;25.20;93.70
19622;DHT22;9958;33.196;-97.114;2022-10-16T06:33:44;25.30;93.80
19622;DHT22;9958;33.196;-97.114;2022-10-16T06:36:15;25.30;93.80
19622;DHT22;9958;33.196;-97.114;2022-10-16T06:38:44;25.30;93.80
19622;DHT22;9958;33.196;-97.114;2022-10-16T06:41:14;25.30;93.80
19622;DHT22;9958;33.196;-97.114;2022-10-16T06:43:44;25.30;93.80
19622;DHT22;9958;33.196;-97.114;2022-10-16T06:46:14;25.30;93.70
19622;DHT22;9958;33.196;-97.114;2022-10-16T06:48:42;25.30;93.80
19622;DHT22;9958;33.196;-97.114;2022-10-16T06:51:12;25.30;93.80
19622;DHT22;9958;33.196;-97.114;2022-10-16T06:53:42;25.30;93.80
19622;DHT22;9958;33.196;-97.114;2022-10-16T06:56:12;25.30;93.80
19622;DHT22;9958;33.196;-97.114;2022-10-16T06:58:41;25.30;93.80
19622;DHT22;9958;33.196;-97.114;2022-10-16T07:01:11;25.30;93.70
19622;DHT22;9958;33.196;-97.114;2022-10-16T07:03:42;25.30;93.70
19622;DHT22;9958;33.196;-97.114;2022-10-16T07:06:12;25.30;93.70
19622;DHT22;9958;33.196;-97.114;2022-10-16T07:08:42;25.30;93.80
19622;DHT22;9958;33.196;-97.114;2022-10-16T07:11:11;25.30;93.60
19622;DHT22;9958;33.196;-97.114;2022-10-16T07:13:41;25.30;93.70
19622;DHT22;9958;33.196;-97.114;2022-10-16T07:16:13;25.30;93.60
19622;DHT22;9958;33.196;-97.114;2022-10-16T07:18:42;25.30;93.80
19622;DHT22;9958;33.196;-97.114;2022-10-16T07:21:13;25.30;93.70
19622;DHT22;9958;33.196;-97.114;2022-10-16T07:23:42;25.30;93.80
19622;DHT22;9958;33.196;-97.114;2022-10-16T07:26:11;25.20;94.20
19622;DHT22;9958;33.196;-97.114;2022-10-16T07:28:39;25.30;94.00
19622;DHT22;9958;33.196;-97.114;2022-10-16T07:31:10;25.20;94.20
19622;DHT22;9958;33.196;-97.114;2022-10-16T07:33:41;25.10;94.20
19622;DHT22;9958;33.196;-97.114;2022-10-16T07:36:11;25.20;94.20
19622;DHT22;9958;33.196;-97.114;2022-10-16T07:38:40;25.20;94.20
19622;DHT22;9958;33.196;-97.114;2022-10-16T07:41:10;25.20;94.30
19622;DHT22;9958;33.196;-97.114;2022-10-16T07:43:39;25.10;94.40
19622;DHT22;9958;33.196;-97.114;2022-10-16T07:46:07;25.10;94.40
19622;DHT22;9958;33.196;-97.114;2022-10-16T07:48:35;25.10;94.60
19622;DHT22;9958;33.196;-97.114;2022-10-16T07:51:06;25.10;94.70
19622;DHT22;9958;33.196;-97.114;2022-10-16T07:53:35;25.10;94.70
19622;DHT22;9958;33.196;-97.114;2022-10-16T07:56:04;25.10;94.70
19622;DHT22;9958;33.196;-97.114;2022-10-16T07:58:34;25.10;94.90
19622;DHT22;9958;33.196;-97.114;2022-10-16T08:01:04;25.10;94.80
19622;DHT22;9958;33.196;-97.114;2022-10-16T08:03:33;25.10;95.00
19622;DHT22;9958;33.196;-97.114;2022-10-16T08:06:02;25.20;95.00
19622;DHT22;9958;33.196;-97.114;2022-10-16T08:08:32;25.20;95.10
19622;DHT22;9958;33.196;-97.114;2022-10-16T08:11:00;25.20;95.50
19622;DHT22;9958;33.196;-97.114;2022-10-16T08:13:30;25.20;95.20
19622;DHT22;9958;33.196;-97.114;2022-10-16T08:15:58;25.20;95.20
19622;DHT22;9958;33.196;-97.114;2022-10-16T08:18:26;25.20;95.30
19622;DHT22;9958;33.196;-97.114;2022-10-16T08:20:58;25.20;95.30
19622;DHT22;9958;33.196;-97.114;2022-10-16T08:23:27;25.20;95.50
19622;DHT22;9958;33.196;-97.114;2022-10-16T08:26:03;25.20;95.50
19622;DHT22;9958;33.196;-97.114;2022-10-16T08:28:31;25.20;95.50
19622;DHT22;9958;33.196;-97.114;2022-10-16T08:31:07;25.20;95.50
19622;DHT22;9958;33.196;-97.114;2022-10-16T08:33:36;25.20;95.50
19622;DHT22;9958;33.196;-97.114;2022-10-16T08:36:05;25.20;95.80
19622;DHT22;9958;33.196;-97.114;2022-10-16T08:38:34;25.20;95.90
19622;DHT22;9958;33.196;-97.114;2022-10-16T08:41:26;25.10;96.10
19622;DHT22;9958;33.196;-97.114;2022-10-16T08:44:19;25.10;96.30
19622;DHT22;9958;33.196;-97.114;2022-10-16T08:46:53;25.00;96.40
19622;DHT22;9958;33.196;-97.114;2022-10-16T08:49:23;25.00;96.60
19622;DHT22;9958;33.196;-97.114;2022-10-16T08:51:52;25.00;96.70
19622;DHT22;9958;33.196;-97.114;2022-10-16T08:54:29;25.00;96.80
19622;DHT22;9958;33.196;-97.114;2022-10-16T08:57:09;24.90;96.90
19622;DHT22;9958;33.196;-97.114;2022-10-16T08:59:37;24.90;97.10
19622;DHT22;9958;33.196;-97.114;2022-10-16T09:02:24;24.90;97.40
19622;DHT22;9958;33.196;-97.114;2022-10-16T09:05:29;24.90;97.90
19622;DHT22;9958;33.196;-97.114;2022-10-16T09:08:09;24.80;98.30
19622;DHT22;9958;33.196;-97.114;2022-10-16T09:10:49;24.70;98.50
19622;DHT22;9958;33.196;-97.114;2022-10-16T09:13:27;24.50;99.10
19622;DHT22;9958;33.196;-97.114;2022-10-16T09:16:02;24.30;99.40
19622;DHT22;9958;33.196;-97.114;2022-10-16T09:18:35;24.10;99.90
19622;DHT22;9958;33.196;-97.114;2022-10-16T09:21:12;23.90;99.90
19622;DHT22;9958;33.196;-97.114;2022-10-16T09:23:42;23.90;99.90
19622;DHT22;9958;33.196;-97.114;2022-10-16T09:26:13;23.50;99.90
19622;DHT22;9958;33.196;-97.114;2022-10-16T09:28:43;23.20;99.90
19622;DHT22;9958;33.196;-97.114;2022-10-16T09:31:16;23.00;99.90
19622;DHT22;9958;33.196;-97.114;2022-10-16T09:33:48;22.80;99.90
19622;DHT22;9958;33.196;-97.114;2022-10-16T09:36:18;22.40;99.90
19622;DHT22;9958;33.196;-97.114;2022-10-16T09:38:47;22.10;99.90
19622;DHT22;9958;33.196;-97.114;2022-10-16T09:41:18;21.80;99.90
19622;DHT22;9958;33.196;-97.114;2022-10-16T09:43:52;21.60;99.90
19622;DHT22;9958;33.196;-97.114;2022-10-16T09:46:29;21.30;99.90
19622;DHT22;9958;33.196;-97.114;2022-10-16T09:48:59;21.00;99.90
19622;DHT22;9958;33.196;-97.114;2022-10-16T09:51:29;20.70;99.90
19622;DHT22;9958;33.196;-97.114;2022-10-16T09:53:59;20.60;99.90
19622;DHT22;9958;33.196;-97.114;2022-10-16T09:56:29;20.40;99.90
19622;DHT22;9958;33.196;-97.114;2022-10-16T09:59:03;20.20;99.90
19622;DHT22;9958;33.196;-97.114;2022-10-16T10:01:35;20.10;99.90
19622;DHT22;9958;33.196;-97.114;2022-10-16T10:04:05;19.90;99.90
19622;DHT22;9958;33.196;-97.114;2022-10-16T10:06:35;19.80;99.90
19622;DHT22;9958;33.196;-97.114;2022-10-16T10:09:06;19.60;99.90
19622;DHT22;9958;33.196;-97.114;2022-10-16T10:11:47;19.50;99.90
19622;DHT22;9958;33.196;-97.114;2022-10-16T10:14:21;19.40;99.90
19622;DHT22;9958;33.196;-97.114;2022-10-16T10:16:50;19.40;99.90
19622;DHT22;9958;33.196;-97.114;2022-10-16T10:19:20;19.40;99.90
19622;DHT22;9958;33.196;-97.114;2022-10-16T10:21:49;19.30;99.90
19622;DHT22;9958;33.196;-97.114;2022-10-16T10:24:18;19.20;99.90
19622;DHT22;9958;33.196;-97.114;2022-10-16T10:26:54;19.10;99.90
19622;DHT22;9958;33.196;-97.114;2022-10-16T10:29:45;19.00;99.90
19622;DHT22;9958;33.196;-97.114;2022-10-16T10:32:25;18.90;99.90
19622;DHT22;9958;33.196;-97.114;2022-10-16T10:35:04;18.90;99.90
19622;DHT22;9958;33.196;-97.114;2022-10-16T10:40:31;18.80;99.90
19622;DHT22;9958;33.196;-97.114;2022-10-16T10:43:04;18.70;99.90
19622;DHT22;9958;33.196;-97.114;2022-10-16T10:45:41;18.60;99.90
19622;DHT22;9958;33.196;-97.114;2022-10-16T10:48:26;18.60;99.90
19622;DHT22;9958;33.196;-97.114;2022-10-16T10:51:00;18.60;99.90
19622;DHT22;9958;33.196;-97.114;2022-10-16T10:53:44;18.60;99.90
19622;DHT22;9958;33.196;-97.114;2022-10-16T10:56:23;18.60;99.90
19622;DHT22;9958;33.196;-97.114;2022-10-16T10:59:31;18.60;99.90
19622;DHT22;9958;33.196;-97.114;2022-10-16T11:02:07;18.50;99.90
19622;DHT22;9958;33.196;-97.114;2022-10-16T11:07:50;18.50;99.90
19622;DHT22;9958;33.196;-97.114;2022-10-16T11:10:22;18.50;99.90
19622;DHT22;9958;33.196;-97.114;2022-10-16T11:12:54;18.40;99.90
19622;DHT22;9958;33.196;-97.114;2022-10-16T11:15:27;18.40;99.90
19622;DHT22;9958;33.196;-97.114;2022-10-16T11:18:03;18.40;99.90
19622;DHT22;9958;33.196;-97.114;2022-10-16T11:20:34;18.40;99.90
19622;DHT22;9958;33.196;-97.114;2022-10-16T11:23:10;18.40;99.90
19622;DHT22;9958;33.196;-97.114;2022-10-16T11:25:44;18.40;99.90
19622;DHT22;9958;33.196;-97.114;2022-10-16T11:28:15;18.40;99.90
19622;DHT22;9958;33.196;-97.114;2022-10-16T11:30:49;18.40;99.90
19622;DHT22;9958;33.196;-97.114;2022-10-16T11:33:27;18.30;99.90
19622;DHT22;9958;33.196;-97.114;2022-10-16T11:36:03;18.30;99.90
19622;DHT22;9958;33.196;-97.114;2022-10-16T11:38:38;18.30;99.90
19622;DHT22;9958;33.196;-97.114;2022-10-16T11:41:15;18.20;99.90
19622;DHT22;9958;33.196;-97.114;2022-10-16T11:43:52;18.20;99.90
19622;DHT22;9958;33.196;-97.114;2022-10-16T11:46:22;18.20;99.90
19622;DHT22;9958;33.196;-97.114;2022-10-16T11:49:00;18.10;99.90
19622;DHT22;9958;33.196;-97.114;2022-10-16T11:51:35;18.10;99.90
19622;DHT22;9958;33.196;-97.114;2022-10-16T11:54:08;18.10;99.90
19622;DHT22;9958;33.196;-97.114;2022-10-16T11:56:44;18.00;99.90
19622;DHT22;9958;33.196;-97.114;2022-10-16T11:59:20;18.00;99.90
19622;DHT22;9958;33.196;-97.114;2022-10-16T12:01:56;17.90;99.90
19622;DHT22;9958;33.196;-97.114;2022-10-16T12:04:34;17.80;99.90
19622;DHT22;9958;33.196;-97.114;2022-10-16T12:07:14;17.80;99.90
19622;DHT22;9958;33.196;-97.114;2022-10-16T12:09:44;17.80;99.90
19622;DHT22;9958;33.196;-97.114;2022-10-16T12:12:25;17.80;99.90
19622;DHT22;9958;33.196;-97.114;2022-10-16T12:15:02;17.80;99.90
19622;DHT22;9958;33.196;-97.114;2022-10-16T12:17:36;17.80;99.90
19622;DHT22;9958;33.196;-97.114;2022-10-16T12:20:24;17.80;99.90
19622;DHT22;9958;33.196;-97.114;2022-10-16T12:22:55;17.80;99.90
19622;DHT22;9958;33.196;-97.114;2022-10-16T12:25:27;17.80;99.90
19622;DHT22;9958;33.196;-97.114;2022-10-16T12:28:01;17.80;99.90
19622;DHT22;9958;33.196;-97.114;2022-10-16T12:30:32;17.80;99.90
19622;DHT22;9958;33.196;-97.114;2022-10-16T12:33:02;17.90;99.90
19622;DHT22;9958;33.196;-97.114;2022-10-16T12:35:34;17.90;99.90
19622;DHT22;9958;33.196;-97.114;2022-10-16T12:38:16;17.90;99.90
19622;DHT22;9958;33.196;-97.114;2022-10-16T12:40:46;17.90;99.90
19622;DHT22;9958;33.196;-97.114;2022-10-16T12:43:37;17.90;99.90
19622;DHT22;9958;33.196;-97.114;2022-10-16T12:46:23;17.90;99.90
19622;DHT22;9958;33.196;-97.114;2022-10-16T12:48:52;17.80;99.90
19622;DHT22;9958;33.196;-97.114;2022-10-16T12:51:33;17.80;99.90
19622;DHT22;9958;33.196;-97.114;2022-10-16T12:54:03;17.70;99.90
19622;DHT22;9958;33.196;-97.114;2022-10-16T12:56:45;17.70;99.90
19622;DHT22;9958;33.196;-97.114;2022-10-16T12:59:24;17.70;99.90
19622;DHT22;9958;33.196;-97.114;2022-10-16T13:04:57;17.70;99.90
19622;DHT22;9958;33.196;-97.114;2022-10-16T13:07:46;17.70;99.90
19622;DHT22;9958;33.196;-97.114;2022-10-16T13:10:22;17.70;99.90
19622;DHT22;9958;33.196;-97.114;2022-10-16T13:13:07;17.70;99.90
19622;DHT22;9958;33.196;-97.114;2022-10-16T13:15:50;17.70;99.90
19622;DHT22;9958;33.196;-97.114;2022-10-16T13:18:25;17.60;99.90
19622;DHT22;9958;33.196;-97.114;2022-10-16T13:21:06;17.60;99.90
19622;DHT22;9958;33.196;-97.114;2022-10-16T13:23:44;17.60;99.90
19622;DHT22;9958;33.196;-97.114;2022-10-16T13:26:22;17.50;99.90
19622;DHT22;9958;33.196;-97.114;2022-10-16T13:28:53;17.50;99.90
19622;DHT22;9958;33.196;-97.114;2022-10-16T13:31:22;17.60;99.90
19622;DHT22;9958;33.196;-97.114;2022-10-16T13:33:53;17.60;99.90
19622;DHT22;9958;33.196;-97.114;2022-10-16T13:36:23;17.70;99.90
19622;DHT22;9958;33.196;-97.114;2022-10-16T13:39:09;17.70;99.90
19622;DHT22;9958;33.196;-97.114;2022-10-16T13:41:38;17.70;99.90
19622;DHT22;9958;33.196;-97.114;2022-10-16T13:44:14;17.70;99.90
19622;DHT22;9958;33.196;-97.114;2022-10-16T13:46:43;17.70;99.90
19622;DHT22;9958;33.196;-97.114;2022-10-16T13:49:16;17.80;99.90
19622;DHT22;9958;33.196;-97.114;2022-10-16T13:51:55;17.80;99.90
19622;DHT22;9958;33.196;-97.114;2022-10-16T13:54:26;17.80;99.90
19622;DHT22;9958;33.196;-97.114;2022-10-16T13:56:55;17.80;99.90
19622;DHT22;9958;33.196;-97.114;2022-10-16T13:59:25;17.80;99.90
19622;DHT22;9958;33.196;-97.114;2022-10-16T14:01:57;17.90;99.90
19622;DHT22;9958;33.196;-97.114;2022-10-16T14:04:32;17.90;99.90
19622;DHT22;9958;33.196;-97.114;2022-10-16T14:07:01;18.00;99.90
19622;DHT22;9958;33.196;-97.114;2022-10-16T14:09:31;18.00;99.90
19622;DHT22;9958;33.196;-97.114;2022-10-16T14:12:03;18.10;99.90
19622;DHT22;9958;33.196;-97.114;2022-10-16T14:14:39;18.20;99.90
19622;DHT22;9958;33.196;-97.114;2022-10-16T14:17:14;18.30;99.90
19622;DHT22;9958;33.196;-97.114;2022-10-16T14:19:46;18.40;99.90
19622;DHT22;9958;33.196;-97.114;2022-10-16T14:22:28;18.40;99.90
19622;DHT22;9958;33.196;-97.114;2022-10-16T14:24:59;18.60;99.90
19622;DHT22;9958;33.196;-97.114;2022-10-16T14:27:32;18.70;99.90
19622;DHT22;9958;33.196;-97.114;2022-10-16T14:30:16;18.90;99.90
19622;DHT22;9958;33.196;-97.114;2022-10-16T14:32:54;19.00;99.90
19622;DHT22;9958;33.196;-97.114;2022-10-16T14:35:25;19.10;99.90
19622;DHT22;9958;33.196;-97.114;2022-10-16T14:37:54;19.20;99.90
19622;DHT22;9958;33.196;-97.114;2022-10-16T14:40:27;19.40;99.90
19622;DHT22;9958;33.196;-97.114;2022-10-16T14:42:56;19.50;99.90
19622;DHT22;9958;33.196;-97.114;2022-10-16T14:45:28;19.60;99.90
19622;DHT22;9958;33.196;-97.114;2022-10-16T14:47:58;19.80;99.90
19622;DHT22;9958;33.196;-97.114;2022-10-16T14:50:27;20.00;99.90
19622;DHT22;9958;33.196;-97.114;2022-10-16T14:52:56;20.10;99.90
19622;DHT22;9958;33.196;-97.114;2022-10-16T14:55:26;20.20;99.90
19622;DHT22;9958;33.196;-97.114;2022-10-16T14:57:54;20.30;99.90
19622;DHT22;9958;33.196;-97.114;2022-10-16T15:00:23;20.40;99.90
19622;DHT22;9958;33.196;-97.114;2022-10-16T15:02:52;20.40;99.90
19622;DHT22;9958;33.196;-97.114;2022-10-16T15:05:22;20.40;99.90
19622;DHT22;9958;33.196;-97.114;2022-10-16T15:07:52;20.50;99.90
19622;DHT22;9958;33.196;-97.114;2022-10-16T15:10:22;20.50;99.90
19622;DHT22;9958;33.196;-97.114;2022-10-16T15:12:52;20.50;99.90
19622;DHT22;9958;33.196;-97.114;2022-10-16T15:15:34;20.50;99.90
19622;DHT22;9958;33.196;-97.114;2022-10-16T15:18:03;20.50;99.90
19622;DHT22;9958;33.196;-97.114;2022-10-16T15:20:33;20.60;99.90
19622;DHT22;9958;33.196;-97.114;2022-10-16T15:23:02;20.60;99.90
19622;DHT22;9958;33.196;-97.114;2022-10-16T15:25:34;20.60;99.90
19622;DHT22;9958;33.196;-97.114;2022-10-16T15:28:04;20.60;99.90
19622;DHT22;9958;33.196;-97.114;2022-10-16T15:30:33;20.60;99.90
19622;DHT22;9958;33.196;-97.114;2022-10-16T15:33:02;20.70;99.90
19622;DHT22;9958;33.196;-97.114;2022-10-16T15:35:30;20.70;99.90
19622;DHT22;9958;33.196;-97.114;2022-10-16T15:37:59;20.70;99.90
19622;DHT22;9958;33.196;-97.114;2022-10-16T15:40:27;20.70;99.90
19622;DHT22;9958;33.196;-97.114;2022-10-16T15:42:55;20.70;99.90
19622;DHT22;9958;33.196;-97.114;2022-10-16T15:45:25;20.70;99.90
19622;DHT22;9958;33.196;-97.114;2022-10-16T15:47:53;20.70;99.90
19622;DHT22;9958;33.196;-97.114;2022-10-16T15:50:22;20.70;99.90
19622;DHT22;9958;33.196;-97.114;2022-10-16T15:52:50;20.70;99.90